Time;durP1;ratioP1;P1;durP2;ratioP2;P2;SDS_P1;SDS_P2;PMS_P1;PMS_P2;Temp;Humidity;BMP_temperature;BMP_pressure;BME280_temperature;BME280_humidity;BME280_pressure;Samples;Min_cycle;Max_cycle;Signal;HPM_P1;HPM_P2
2022/11/08 00:01:37;;;;;;;;;6.67;6.67;;;;;14.22;100.00;100545.16;5103808;27;45259;-77
2022/11/08 00:04:05;;;;;;;;;4.00;4.00;;;;;14.50;100.00;100531.59;5099736;27;46036;-77
2022/11/08 00:14:45;;;;;;;;;6.00;5.00;;;;;14.57;100.00;100517.38;5101491;27;45599;-77
2022/11/08 00:17:14;;;;;;;;;5.67;5.00;;;;;14.57;100.00;100514.69;5101653;27;45387;-77
2022/11/08 00:19:41;;;;;;;;;6.00;6.00;;;;;14.41;100.00;100484.69;5101465;27;45464;-77
2022/11/08 00:22:06;;;;;;;;;7.00;7.00;;;;;14.55;100.00;100500.72;5108760;27;45347;-77
2022/11/08 00:24:33;;;;;;;;;6.00;6.00;;;;;14.52;100.00;100501.97;5101321;27;45482;-76
2022/11/08 00:26:59;;;;;;;;;7.00;6.00;;;;;14.48;100.00;100495.38;5101721;27;46539;-77
2022/11/08 00:29:24;;;;;;;;;10.67;8.33;;;;;14.43;100.00;100490.66;5101514;27;45453;-77
2022/11/08 00:31:49;;;;;;;;;5.00;5.00;;;;;14.18;100.00;100495.78;5104810;27;45403;-77
2022/11/08 00:34:15;;;;;;;;;8.00;7.00;;;;;14.04;100.00;100481.59;5101684;27;45503;-77
2022/11/08 00:36:40;;;;;;;;;7.00;6.00;;;;;14.43;100.00;100479.16;5101261;27;45255;-77
2022/11/08 00:39:05;;;;;;;;;6.00;6.00;;;;;14.03;100.00;100480.75;5104300;27;45615;-77
2022/11/08 00:41:31;;;;;;;;;6.67;6.67;;;;;14.44;100.00;100470.09;5102174;27;45373;-77
2022/11/08 00:43:56;;;;;;;;;10.33;6.67;;;;;14.45;100.00;100451.16;5100968;27;45258;-77
2022/11/08 00:46:22;;;;;;;;;6.00;6.00;;;;;14.42;100.00;100432.84;5101350;27;45280;-77
2022/11/08 00:48:47;;;;;;;;;6.33;5.67;;;;;14.44;100.00;100428.13;5115206;27;45755;-77
2022/11/08 00:51:12;;;;;;;;;4.67;4.67;;;;;14.47;100.00;100432.25;5101252;27;45165;-77
2022/11/08 00:53:38;;;;;;;;;5.33;5.33;;;;;14.58;100.00;100431.59;5111875;27;46118;-77
2022/11/08 00:56:06;;;;;;;;;4.33;4.33;;;;;14.51;100.00;100438.81;5093794;27;45295;-77
2022/11/08 00:58:32;;;;;;;;;6.33;5.67;;;;;14.48;100.00;100423.19;5095874;27;45367;-77
2022/11/08 01:00:58;;;;;;;;;5.00;5.00;;;;;14.47;100.00;100416.19;5116760;27;45407;-77
2022/11/08 01:03:24;;;;;;;;;6.33;5.33;;;;;14.42;100.00;100405.31;5101823;27;45475;-77
2022/11/08 01:05:52;;;;;;;;;5.33;5.33;;;;;14.48;100.00;100412.47;5101505;27;46230;-77
2022/11/08 01:08:20;;;;;;;;;4.33;4.33;;;;;14.43;100.00;100404.28;5101720;27;45342;-77
2022/11/08 01:10:49;;;;;;;;;6.00;6.00;;;;;14.49;100.00;100403.47;5102513;27;45420;-77
2022/11/08 01:13:15;;;;;;;;;5.00;5.00;;;;;14.22;100.00;100404.28;5102624;27;45487;-77
2022/11/08 01:15:42;;;;;;;;;7.00;5.33;;;;;13.91;100.00;100371.00;5100494;27;45310;-76
2022/11/08 01:18:08;;;;;;;;;6.00;5.67;;;;;14.03;100.00;100395.25;5102770;27;45285;-77
2022/11/08 01:20:44;;;;;;;;;6.67;6.67;;;;;13.91;100.00;100376.34;5101077;27;45167;-77
2022/11/08 01:23:10;;;;;;;;;4.67;4.67;;;;;14.38;100.00;100388.88;5095668;27;46076;-77
2022/11/08 01:25:37;;;;;;;;;8.00;7.00;;;;;14.38;100.00;100391.53;5108641;27;47242;-77
2022/11/08 01:28:03;;;;;;;;;5.33;5.33;;;;;14.29;100.00;100379.41;5107258;27;45493;-77
2022/11/08 01:30:29;;;;;;;;;4.33;4.33;;;;;14.02;100.00;100361.56;5100708;27;45421;-77
2022/11/08 01:32:54;;;;;;;;;6.33;6.33;;;;;13.86;100.00;100357.47;5095541;27;46053;-77
2022/11/08 01:35:19;;;;;;;;;6.00;5.00;;;;;13.87;100.00;100356.44;5088138;27;49390;-77
2022/11/08 01:37:45;;;;;;;;;5.67;5.33;;;;;13.88;100.00;100366.06;5100388;27;45422;-76
2022/11/08 01:40:10;;;;;;;;;6.67;5.00;;;;;13.87;100.00;100361.78;5100704;27;45487;-76
2022/11/08 01:42:35;;;;;;;;;3.00;3.00;;;;;14.21;100.00;100359.06;5100460;27;45531;-77
2022/11/08 01:45:07;;;;;;;;;5.67;5.67;;;;;14.18;100.00;100351.47;5099505;27;46195;-77
2022/11/08 01:47:33;;;;;;;;;6.00;4.67;;;;;14.30;99.85;100362.38;5101826;27;45340;-77
2022/11/08 01:50:09;;;;;;;;;5.00;5.00;;;;;14.27;99.66;100348.38;5100191;27;45481;-77
2022/11/08 01:52:40;;;;;;;;;6.33;5.67;;;;;14.38;98.92;100375.50;5094242;27;45389;-77
2022/11/08 01:55:09;;;;;;;;;5.33;5.00;;;;;14.35;98.63;100360.69;5093291;27;46360;-78
2022/11/08 01:57:37;;;;;;;;;6.00;6.00;;;;;14.35;98.76;100368.72;5100023;27;45396;-77
2022/11/08 02:00:07;;;;;;;;;6.00;4.67;;;;;14.27;98.73;100352.88;5100230;27;45310;-77
2022/11/08 02:02:34;;;;;;;;;6.67;6.67;;;;;14.18;98.41;100344.28;5098999;27;45266;-77
2022/11/08 02:05:01;;;;;;;;;5.67;5.67;;;;;14.27;98.44;100359.06;5099897;27;46284;-77
2022/11/08 02:07:29;;;;;;;;;6.00;6.00;;;;;14.21;98.38;100351.88;5099955;27;45238;-78
2022/11/08 02:09:56;;;;;;;;;5.33;5.33;;;;;14.25;98.43;100349.63;5099891;27;45282;-78
2022/11/08 02:12:22;;;;;;;;;4.67;4.67;;;;;14.30;98.31;100357.00;5099613;27;45306;-77
2022/11/08 02:14:47;;;;;;;;;5.00;5.00;;;;;14.29;98.20;100356.19;5094933;27;47011;-77
2022/11/08 02:17:13;;;;;;;;;6.00;6.00;;;;;14.26;97.99;100341.41;5093439;27;45434;-77
2022/11/08 02:19:44;;;;;;;;;6.00;6.00;;;;;14.26;97.99;100351.25;5115424;27;45486;-77
2022/11/08 02:22:27;;;;;;;;;5.00;5.00;;;;;14.06;97.84;100312.00;5099016;27;46144;-77
2022/11/08 02:24:53;;;;;;;;;7.00;5.00;;;;;14.22;97.89;100329.44;5099600;27;46148;-77
2022/11/08 02:27:19;;;;;;;;;3.33;3.33;;;;;14.10;98.10;100309.75;5099160;27;45466;-77
2022/11/08 02:29:45;;;;;;;;;5.00;5.00;;;;;14.10;97.88;100313.25;5099938;27;45227;-77
2022/11/08 02:32:11;;;;;;;;;5.33;5.33;;;;;14.17;97.69;100315.09;5106097;27;47038;-77
2022/11/08 02:34:42;;;;;;;;;6.00;5.33;;;;;14.14;97.44;100314.50;5099910;27;45414;-78
2022/11/08 02:37:08;;;;;;;;;7.00;6.00;;;;;14.06;97.23;100295.16;5099974;27;45247;-78
2022/11/08 02:39:34;;;;;;;;;5.00;5.00;;;;;14.13;97.56;100304.00;5097247;27;45380;-77
2022/11/08 02:42:01;;;;;;;;;5.00;5.00;;;;;13.81;97.58;100296.66;5096848;27;45535;-77
2022/11/08 02:44:26;;;;;;;;;5.00;5.00;;;;;13.78;98.65;100290.88;5104367;27;47656;-78
2022/11/08 02:46:52;;;;;;;;;4.67;4.33;;;;;13.84;99.44;100285.56;5099805;27;45449;-77
2022/11/08 02:49:17;;;;;;;;;5.00;4.00;;;;;14.00;98.06;100286.97;5100949;27;45321;-77
2022/11/08 02:51:42;;;;;;;;;5.00;5.00;;;;;14.04;97.35;100262.50;5094645;27;48444;-77
2022/11/08 02:54:07;;;;;;;;;6.00;6.00;;;;;13.99;97.11;100257.78;5099113;27;45307;-76
2022/11/08 02:56:33;;;;;;;;;4.00;4.00;;;;;13.82;96.84;100260.88;5100104;27;45448;-76
2022/11/08 02:58:58;;;;;;;;;4.00;4.00;;;;;14.03;97.73;100268.88;5103038;27;45344;-76
2022/11/08 03:01:23;;;;;;;;;5.00;5.00;;;;;14.04;96.96;100270.50;5105626;27;45345;-77
2022/11/08 03:03:49;;;;;;;;;5.00;5.00;;;;;14.02;96.59;100262.69;5102672;27;45507;-77
2022/11/08 03:06:14;;;;;;;;;6.33;6.33;;;;;13.93;96.54;100248.75;5102642;27;46546;-76
2022/11/08 03:08:39;;;;;;;;;6.67;5.67;;;;;13.95;96.79;100248.53;5103052;27;45422;-76
2022/11/08 03:11:05;;;;;;;;;5.67;5.33;;;;;13.98;96.65;100248.94;5116932;27;45928;-77
2022/11/08 03:13:30;;;;;;;;;5.00;4.00;;;;;13.89;96.85;100244.88;5102656;27;46292;-77
2022/11/08 03:15:55;;;;;;;;;4.00;4.00;;;;;14.04;96.10;100246.47;5102634;27;45230;-77
2022/11/08 03:18:21;;;;;;;;;3.67;3.00;;;;;14.00;96.17;100240.72;5103091;27;45311;-77
2022/11/08 03:20:46;;;;;;;;;4.67;4.67;;;;;14.06;95.95;100244.38;5112663;27;48182;-76
2022/11/08 03:23:12;;;;;;;;;4.67;4.00;;;;;14.07;95.83;100252.19;5102348;27;46957;-77
2022/11/08 03:25:38;;;;;;;;;5.67;5.67;;;;;13.94;95.46;100220.16;5102358;27;45283;-76
2022/11/08 03:28:05;;;;;;;;;4.00;3.67;;;;;14.01;94.96;100237.03;5102791;27;45302;-76
2022/11/08 03:30:31;;;;;;;;;5.67;5.00;;;;;13.95;94.90;100233.31;5097691;27;46337;-77
2022/11/08 03:32:57;;;;;;;;;3.00;3.00;;;;;14.01;94.94;100247.72;5099292;27;45457;-76
2022/11/08 03:35:22;;;;;;;;;4.00;4.00;;;;;13.96;94.49;100250.19;5102401;27;45438;-76
2022/11/08 03:37:51;;;;;;;;;6.00;5.00;;;;;13.94;94.72;100242.38;5102472;27;45794;-76
2022/11/08 03:40:17;;;;;;;;;3.33;3.33;;;;;13.99;94.28;100247.91;5100720;27;47544;-77
2022/11/08 03:42:43;;;;;;;;;2.00;1.00;;;;;14.00;94.72;100254.91;5102376;27;46627;-76
2022/11/08 03:45:10;;;;;;;;;4.00;3.00;;;;;13.97;94.23;100257.16;5100725;27;45478;-76
2022/11/08 03:47:44;;;;;;;;;5.00;5.00;;;;;14.01;94.39;100264.53;5102462;27;45148;-76
2022/11/08 03:50:10;;;;;;;;;5.00;5.00;;;;;13.99;94.58;100255.09;5100671;27;46028;-76
2022/11/08 03:52:44;;;;;;;;;4.33;4.33;;;;;13.95;94.32;100251.22;5100638;27;48279;-76
2022/11/08 03:55:11;;;;;;;;;5.00;5.00;;;;;13.97;94.39;100257.97;5101791;27;45316;-77
2022/11/08 03:57:38;;;;;;;;;5.33;5.00;;;;;13.90;94.23;100241.16;5100705;27;45358;-77
2022/11/08 04:00:04;;;;;;;;;3.00;3.00;;;;;13.90;94.38;100249.16;5102009;27;45424;-76
2022/11/08 04:02:30;;;;;;;;;4.33;4.33;;;;;13.87;93.96;100245.06;5095355;27;47053;-77
2022/11/08 04:04:55;;;;;;;;;4.33;4.00;;;;;13.81;93.09;100247.72;5104082;27;45990;-76
2022/11/08 04:07:20;;;;;;;;;5.33;5.00;;;;;13.81;93.46;100251.25;5097615;27;45305;-76
2022/11/08 04:09:46;;;;;;;;;4.67;4.67;;;;;13.83;94.00;100243.81;5101695;27;45303;-77
2022/11/08 04:15:13;;;;;;;;;3.67;3.67;;;;;13.86;93.64;100254.09;5101592;27;45353;-76
2022/11/08 04:23:06;;;;;;;;;3.33;3.00;;;;;13.74;93.45;100253.09;5101432;27;45356;-76
2022/11/08 04:25:32;;;;;;;;;5.00;5.00;;;;;13.77;93.46;100252.69;5099964;27;45335;-76
2022/11/08 04:27:57;;;;;;;;;4.00;4.00;;;;;13.78;93.34;100259.66;5101512;27;45408;-77
2022/11/08 04:30:22;;;;;;;;;4.67;4.67;;;;;13.76;93.06;100251.84;5101469;27;45523;-76
2022/11/08 04:32:47;;;;;;;;;3.00;3.00;;;;;13.73;93.01;100246.94;5101127;27;50737;-77
2022/11/08 04:35:13;;;;;;;;;5.00;4.00;;;;;13.71;93.14;100245.50;5101412;27;45424;-77
2022/11/08 04:37:38;;;;;;;;;5.00;5.00;;;;;13.71;93.17;100229.47;5096791;27;45673;-77
2022/11/08 04:40:04;;;;;;;;;5.33;4.33;;;;;13.61;91.74;100227.22;5095349;27;53781;-77
2022/11/08 04:42:29;;;;;;;;;5.00;5.00;;;;;13.75;92.50;100244.06;5101403;27;45318;-77
2022/11/08 04:44:54;;;;;;;;;4.00;4.00;;;;;13.72;92.42;100233.78;5101210;27;45303;-77
2022/11/08 04:47:20;;;;;;;;;4.00;4.00;;;;;13.72;92.65;100233.78;5101030;27;47571;-76
2022/11/08 04:49:45;;;;;;;;;5.00;5.00;;;;;13.71;92.52;100245.50;5107740;27;55363;-77
2022/11/08 04:52:10;;;;;;;;;4.00;4.00;;;;;13.73;92.42;100236.25;5099634;27;47196;-76
2022/11/08 04:54:36;;;;;;;;;5.00;5.00;;;;;13.75;92.26;100234.19;5101010;27;45172;-77
2022/11/08 04:57:01;;;;;;;;;4.00;4.00;;;;;13.79;91.86;100236.44;5101269;27;45268;-77
2022/11/08 04:59:26;;;;;;;;;6.00;5.00;;;;;13.75;92.20;100238.72;5103492;27;46041;-77
2022/11/08 05:01:51;;;;;;;;;6.33;6.00;;;;;13.79;92.43;100233.75;5102823;27;45214;-76
2022/11/08 05:04:17;;;;;;;;;4.00;4.00;;;;;13.84;91.96;100241.97;5100631;27;45164;-77
2022/11/08 05:06:43;;;;;;;;;6.67;6.67;;;;;13.74;91.89;100227.19;5101245;27;45395;-77
2022/11/08 05:09:08;;;;;;;;;4.67;4.67;;;;;13.89;91.36;100242.19;5100658;27;45487;-77
2022/11/08 05:11:34;;;;;;;;;3.67;3.67;;;;;13.73;91.60;100217.56;5100308;27;46167;-77
2022/11/08 05:13:59;;;;;;;;;4.00;4.00;;;;;13.90;91.22;100238.47;5100668;27;45148;-77
2022/11/08 05:16:29;;;;;;;;;5.33;5.33;;;;;13.92;90.70;100243.63;5102894;27;45376;-77
2022/11/08 05:18:55;;;;;;;;;5.67;5.67;;;;;13.91;91.05;100248.13;5100101;27;45356;-77
2022/11/08 05:24:08;;;;;;;;;5.00;5.00;;;;;13.84;90.18;100229.47;5100927;27;45278;-79
2022/11/08 05:26:35;;;;;;;;;5.00;5.00;;;;;13.96;90.56;100243.00;5100485;27;45216;-78
2022/11/08 05:29:01;;;;;;;;;4.00;4.00;;;;;13.92;90.54;100222.25;5100464;27;45446;-77
2022/11/08 05:31:26;;;;;;;;;5.00;5.00;;;;;13.97;90.40;100233.94;5095526;27;47163;-77
2022/11/08 05:33:52;;;;;;;;;5.00;5.00;;;;;13.87;90.05;100221.03;5090802;27;45352;-79
2022/11/08 05:36:17;;;;;;;;;3.00;3.00;;;;;13.70;89.72;100203.78;5100537;27;45405;-76
2022/11/08 05:38:43;;;;;;;;;5.33;5.33;;;;;13.87;89.37;100230.88;5101022;27;45608;-77
2022/11/08 05:41:16;;;;;;;;;2.67;2.67;;;;;13.92;89.40;100236.41;5100199;27;46128;-77
2022/11/08 05:43:44;;;;;;;;;5.00;5.00;;;;;13.87;89.07;100231.72;5100765;27;45338;-79
2022/11/08 05:46:09;;;;;;;;;4.00;4.00;;;;;13.85;89.36;100225.75;5100469;27;45431;-79
2022/11/08 05:48:35;;;;;;;;;3.33;3.33;;;;;13.91;89.58;100217.94;5100065;27;45305;-79
2022/11/08 05:51:00;;;;;;;;;5.00;5.00;;;;;13.88;89.44;100233.34;5100397;27;45355;-77
2022/11/08 05:53:26;;;;;;;;;5.67;5.67;;;;;13.89;89.27;100237.66;5100212;27;45244;-76
2022/11/08 05:56:00;;;;;;;;;5.00;5.00;;;;;13.95;88.37;100232.50;5100029;27;45266;-79
2022/11/08 05:58:26;;;;;;;;;5.00;5.00;;;;;13.96;88.88;100243.00;5098802;27;46769;-79
2022/11/08 06:01:00;;;;;;;;;4.00;4.00;;;;;13.89;88.66;100231.50;5101817;27;46207;-80
2022/11/08 06:03:25;;;;;;;;;4.00;4.00;;;;;13.85;88.48;100227.59;5107469;27;45654;-76
2022/11/08 06:05:51;;;;;;;;;6.00;4.67;;;;;13.91;88.97;100226.75;5098521;27;45557;-78
2022/11/08 06:08:16;;;;;;;;;4.33;4.33;;;;;13.91;88.59;100233.97;5099976;27;45333;-76
2022/11/08 06:10:41;;;;;;;;;3.67;3.67;;;;;13.89;88.51;100224.28;5099475;27;45297;-79
2022/11/08 06:13:07;;;;;;;;;4.33;4.33;;;;;13.84;88.25;100223.28;5100149;27;45223;-77
2022/11/08 06:15:32;;;;;;;;;3.00;3.00;;;;;14.01;88.87;100247.72;5100076;27;45392;-78
2022/11/08 06:18:01;;;;;;;;;4.00;4.00;;;;;13.84;88.53;100236.63;5099401;27;52691;-78
2022/11/08 06:20:27;;;;;;;;;3.67;3.67;;;;;13.85;89.14;100225.75;5095009;27;47343;-76
2022/11/08 06:22:54;;;;;;;;;5.00;5.00;;;;;13.80;88.65;100222.06;5097359;27;45350;-76
2022/11/08 06:25:19;;;;;;;;;6.00;6.00;;;;;13.88;88.97;100233.34;5095030;27;45412;-77
2022/11/08 06:27:44;;;;;;;;;4.00;4.00;;;;;13.83;88.29;100230.47;5109844;27;47163;-79
2022/11/08 06:30:10;;;;;;;;;4.00;4.00;;;;;13.92;88.14;100223.03;5099799;27;50808;-79
2022/11/08 06:32:35;;;;;;;;;6.00;5.00;;;;;13.84;87.92;100225.97;5098785;27;45340;-78
2022/11/08 06:35:01;;;;;;;;;1.33;1.33;;;;;13.85;87.59;100235.59;5103272;27;45453;-79
2022/11/08 06:37:26;;;;;;;;;4.33;3.67;;;;;13.86;87.71;100222.03;5103361;27;45451;-77
2022/11/08 06:39:51;;;;;;;;;4.33;4.33;;;;;13.93;87.15;100237.22;5103311;27;45665;-78
2022/11/08 06:42:17;;;;;;;;;4.00;4.00;;;;;13.90;87.21;100235.81;5103189;27;45372;-79
2022/11/08 06:44:42;;;;;;;;;5.00;4.00;;;;;13.93;87.90;100251.41;5110775;27;45365;-79
2022/11/08 06:47:07;;;;;;;;;5.33;5.00;;;;;13.85;87.98;100222.25;5102866;27;48938;-80
2022/11/08 06:49:32;;;;;;;;;4.00;4.00;;;;;13.93;87.67;100223.88;5103304;27;51999;-77
2022/11/08 06:51:58;;;;;;;;;7.33;5.00;;;;;13.98;88.04;100243.59;5114332;27;45299;-79
2022/11/08 06:54:23;;;;;;;;;4.00;4.00;;;;;13.94;87.55;100233.53;5103052;27;45253;-78
2022/11/08 06:56:48;;;;;;;;;3.33;2.33;;;;;13.92;87.63;100241.75;5103064;27;45283;-76
2022/11/08 06:59:14;;;;;;;;;4.00;4.00;;;;;13.85;87.79;100231.09;5102837;27;45415;-78
2022/11/08 07:01:39;;;;;;;;;3.00;3.00;;;;;13.97;88.18;100255.31;5110739;27;45262;-78
2022/11/08 07:04:04;;;;;;;;;4.00;4.00;;;;;14.02;88.31;100257.38;5120096;27;45176;-78
2022/11/08 07:06:30;;;;;;;;;5.00;4.00;;;;;14.03;87.93;100269.69;5109745;27;45832;-75
2022/11/08 07:08:56;;;;;;;;;3.00;3.00;;;;;14.06;88.05;100295.16;5103702;27;46086;-75
2022/11/08 07:11:21;;;;;;;;;5.00;5.00;;;;;13.94;87.15;100257.56;5098639;27;45473;-78
2022/11/08 07:13:46;;;;;;;;;4.67;4.67;;;;;14.05;86.95;100281.00;5096641;27;45287;-76
2022/11/08 07:16:12;;;;;;;;;4.67;4.67;;;;;14.03;87.83;100279.56;5103375;27;45680;-78
2022/11/08 07:18:38;;;;;;;;;5.00;5.00;;;;;14.02;88.02;100262.69;5109234;27;50614;-75
2022/11/08 07:21:03;;;;;;;;;5.00;5.00;;;;;14.11;88.44;100274.00;5101358;27;45298;-75
2022/11/08 07:23:29;;;;;;;;;5.33;4.67;;;;;14.03;88.56;100261.66;5094421;27;46125;-75
2022/11/08 07:25:54;;;;;;;;;6.00;6.00;;;;;14.03;88.56;100259.00;5100584;27;47417;-76
2022/11/08 07:28:20;;;;;;;;;3.67;3.67;;;;;14.15;87.99;100277.88;5102250;27;50488;-76
2022/11/08 07:30:47;;;;;;;;;6.00;6.00;;;;;14.16;88.28;100284.06;5096774;27;45618;-78
2022/11/08 07:33:14;;;;;;;;;5.00;4.00;;;;;14.20;88.07;100263.88;5102838;27;45313;-77
2022/11/08 07:35:40;;;;;;;;;6.33;5.67;;;;;14.27;88.40;100286.91;5101659;27;45589;-78
2022/11/08 07:38:06;;;;;;;;;5.00;4.67;;;;;14.29;88.68;100289.38;5092191;27;45271;-78
2022/11/08 07:40:34;;;;;;;;;5.00;5.00;;;;;14.29;88.88;100285.84;5103880;27;45930;-78
2022/11/08 07:43:00;;;;;;;;;6.00;5.00;;;;;14.28;88.31;100263.69;5101822;27;45373;-78
2022/11/08 07:45:26;;;;;;;;;4.00;4.00;;;;;14.43;87.97;100287.47;5109591;27;47194;-79
2022/11/08 07:48:03;;;;;;;;;4.00;4.00;;;;;14.48;87.94;100284.97;5104868;27;45207;-78
2022/11/08 07:50:29;;;;;;;;;4.00;4.00;;;;;14.42;87.97;100261.75;5105778;27;45600;-78
2022/11/08 07:52:54;;;;;;;;;4.00;4.00;;;;;14.45;88.97;100273.88;5102091;27;45310;-79
2022/11/08 07:55:19;;;;;;;;;4.67;4.67;;;;;14.55;88.06;100287.63;5097460;27;45905;-81
2022/11/08 07:57:45;;;;;;;;;4.33;4.00;;;;;14.54;88.38;100285.19;5113728;27;47546;-81
2022/11/08 08:00:11;;;;;;;;;3.00;3.00;;;;;14.52;88.42;100264.78;5102176;27;45884;-81
2022/11/08 08:02:37;;;;;;;;;4.67;4.67;;;;;14.65;88.61;100276.47;5101217;27;45376;-80
2022/11/08 08:05:02;;;;;;;;;5.67;5.00;;;;;14.68;88.96;100286.75;5098807;27;45482;-80
2022/11/08 08:07:28;;;;;;;;;4.67;4.67;;;;;14.79;88.12;100287.16;5102320;27;45314;-80
2022/11/08 08:09:53;;;;;;;;;4.00;4.00;;;;;14.76;88.36;100278.47;5099158;27;46640;-81
2022/11/08 08:12:18;;;;;;;;;3.00;3.00;;;;;14.86;88.47;100283.41;5108751;27;45290;-83
2022/11/08 08:14:44;;;;;;;;;4.00;4.00;;;;;14.99;88.27;100287.03;5105663;27;53729;-83
2022/11/08 08:17:09;;;;;;;;;3.00;3.00;;;;;15.06;88.35;100281.66;5107825;27;46418;-83
2022/11/08 08:19:34;;;;;;;;;4.67;4.33;;;;;15.15;88.18;100283.03;5108341;27;45320;-83
2022/11/08 08:21:59;;;;;;;;;4.33;4.33;;;;;15.21;88.33;100273.31;5118332;27;45294;-81
2022/11/08 08:24:25;;;;;;;;;2.50;2.50;;;;;15.32;88.37;100280.63;5117995;27;54060;-83
2022/11/08 08:26:51;;;;;;;;;2.00;2.00;;;;;15.45;88.04;100268.19;5115527;27;46942;-84
2022/11/08 08:29:16;;;;;;;;;2.00;2.00;;;;;15.39;87.97;100259.19;5118525;27;45211;-82
2022/11/08 08:31:41;;;;;;;;;3.00;3.00;;;;;15.65;87.55;100282.22;5113188;27;45295;-83
2022/11/08 08:34:06;;;;;;;;;4.00;4.00;;;;;15.69;87.85;100285.31;5120448;27;51188;-84
2022/11/08 08:36:32;;;;;;;;;4.33;4.33;;;;;15.83;88.52;100282.50;5114191;27;47427;-83
2022/11/08 08:38:57;;;;;;;;;4.00;4.00;;;;;15.92;87.63;100293.75;5108637;27;45313;-82
2022/11/08 08:41:22;;;;;;;;;4.00;4.00;;;;;15.88;87.21;100263.91;5112059;27;45194;-84
2022/11/08 08:43:48;;;;;;;;;3.00;3.00;;;;;15.93;86.83;100264.06;5114543;27;47123;-83
2022/11/08 08:46:13;;;;;;;;;5.00;5.00;;;;;15.76;87.12;100274.53;5107569;27;45219;-84
2022/11/08 08:48:38;;;;;;;;;3.33;3.00;;;;;15.79;87.89;100266.03;5110742;27;45246;-79
2022/11/08 08:51:04;;;;;;;;;4.67;3.67;;;;;15.82;87.39;100273.66;5111249;27;45170;-84
2022/11/08 08:53:29;;;;;;;;;5.33;3.00;;;;;15.86;88.28;100264.13;5102416;27;45356;-83
2022/11/08 08:55:55;;;;;;;;;2.00;2.00;;;;;15.92;87.99;100270.44;5104145;27;45348;-84
2022/11/08 08:58:21;;;;;;;;;2.67;2.67;;;;;15.90;87.70;100259.16;5105855;27;45416;-83
2022/11/08 09:00:47;;;;;;;;;4.67;3.00;;;;;15.99;87.89;100260.53;5086248;27;45432;-84
2022/11/08 09:03:12;;;;;;;;;2.67;2.67;;;;;15.96;87.23;100277.06;5091084;27;45507;-83
2022/11/08 09:05:40;;;;;;;;;3.00;3.00;;;;;15.99;87.12;100287.34;5092415;27;47197;-83
2022/11/08 09:08:06;;;;;;;;;3.67;2.00;;;;;15.99;87.26;100275.78;5087820;27;45543;-83
2022/11/08 09:10:32;;;;;;;;;3.00;3.00;;;;;16.14;87.42;100278.09;5098425;27;45265;-83
2022/11/08 09:12:57;;;;;;;;;3.67;3.33;;;;;16.14;86.96;100260.13;5102199;27;45334;-84
2022/11/08 09:15:22;;;;;;;;;3.00;3.00;;;;;16.15;87.50;100261.78;5096387;27;48271;-83
2022/11/08 09:17:48;;;;;;;;;2.67;2.67;;;;;16.58;86.62;100267.25;5111661;27;45355;-81
2022/11/08 09:20:13;;;;;;;;;3.33;3.00;;;;;16.83;85.63;100282.44;5103352;27;45644;-83
2022/11/08 09:22:39;;;;;;;;;3.00;3.00;;;;;16.90;84.63;100288.53;5117674;27;47058;-82
2022/11/08 09:25:05;;;;;;;;;4.00;2.67;;;;;16.95;84.52;100271.75;5102835;27;46302;-83
2022/11/08 09:27:31;;;;;;;;;4.00;4.00;;;;;17.11;84.03;100285.56;5106403;27;45357;-81
2022/11/08 09:29:57;;;;;;;;;3.00;2.33;;;;;17.19;84.43;100274.53;5114446;27;45417;-82
2022/11/08 09:32:24;;;;;;;;;10.00;9.00;;;;;17.36;83.53;100284.59;5115056;27;47124;-82
2022/11/08 09:34:50;;;;;;;;;8.67;8.67;;;;;17.36;83.61;100265.81;5109620;27;45321;-82
2022/11/08 09:37:16;;;;;;;;;2.67;2.00;;;;;17.43;83.61;100293.38;5103361;27;45451;-81
2022/11/08 09:39:41;;;;;;;;;2.00;1.00;;;;;17.43;83.41;100285.31;5113674;27;45389;-82
2022/11/08 09:42:25;;;;;;;;;3.33;3.33;;;;;17.50;82.76;100296.75;5105225;27;50322;-81
2022/11/08 09:45:02;;;;;;;;;3.00;2.00;;;;;17.58;81.87;100275.97;5109054;27;47365;-82
2022/11/08 09:47:36;;;;;;;;;2.00;2.00;;;;;17.62;81.79;100291.41;5104457;27;45287;-79
2022/11/08 09:50:01;;;;;;;;;3.00;3.00;;;;;17.42;81.51;100295.22;5106247;27;45360;-81
2022/11/08 09:52:29;;;;;;;;;4.00;4.00;;;;;17.41;83.27;100301.66;5121532;27;46212;-80
2022/11/08 09:55:11;;;;;;;;;8.33;6.67;;;;;17.63;83.71;100295.72;5100796;27;45247;-82
2022/11/08 09:57:46;;;;;;;;;5.00;4.00;;;;;17.79;82.35;100288.03;5101354;27;45164;-82
2022/11/08 10:00:12;;;;;;;;;4.00;4.00;;;;;17.85;80.89;100294.34;5109981;27;45272;-81
2022/11/08 10:02:38;;;;;;;;;4.00;3.00;;;;;17.91;81.14;100296.91;5105761;27;44750;-79
2022/11/08 10:05:08;;;;;;;;;3.67;3.67;;;;;17.95;81.12;100283.81;5091732;27;47039;-81
2022/11/08 10:07:53;;;;;;;;;3.00;3.00;;;;;18.05;81.45;100292.09;5107678;27;44805;-80
2022/11/08 10:10:30;;;;;;;;;5.00;3.00;;;;;18.13;80.71;100303.56;5110614;27;45281;-81
2022/11/08 10:13:14;;;;;;;;;2.00;2.00;;;;;18.19;81.50;100307.22;5102670;27;47281;-79
2022/11/08 10:16:02;;;;;;;;;4.67;4.00;;;;;17.93;81.25;100264.44;5099957;27;45352;-79
2022/11/08 10:18:44;;;;;;;;;1.00;1.00;;;;;17.89;81.85;100308.94;5084448;27;45502;-81
2022/11/08 10:21:19;;;;;;;;;3.33;3.00;;;;;18.21;81.07;100302.41;5090704;27;45357;-80
2022/11/08 10:23:51;;;;;;;;;2.67;2.67;;;;;18.21;80.35;100299.72;5103804;27;47122;-80
2022/11/08 10:26:19;;;;;;;;;4.33;4.33;;;;;18.25;80.58;100304.38;5104849;27;46528;-81
2022/11/08 10:28:51;;;;;;;;;3.00;3.00;;;;;18.26;80.24;100294.44;5121750;27;45274;-78
2022/11/08 10:31:19;;;;;;;;;5.00;4.67;;;;;18.22;80.59;100290.56;5107525;27;45297;-78
2022/11/08 10:33:51;;;;;;;;;3.67;3.00;;;;;18.25;79.72;100298.16;5108217;27;45595;-80
2022/11/08 10:36:27;;;;;;;;;7.67;7.00;;;;;18.25;81.01;100295.47;5102414;27;45397;-81
2022/11/08 10:39:08;;;;;;;;;6.33;4.00;;;;;18.33;80.69;100313.97;5098349;27;45388;-81
2022/11/08 10:41:54;;;;;;;;;5.00;4.00;;;;;18.47;79.87;100295.66;5101138;27;45421;-80
2022/11/08 10:44:23;;;;;;;;;5.67;5.00;;;;;18.46;79.79;100269.81;5105920;27;45263;-79
2022/11/08 10:46:58;;;;;;;;;3.33;3.33;;;;;18.63;80.85;100286.03;5099478;27;45480;-79
2022/11/08 10:49:33;;;;;;;;;5.00;3.00;;;;;18.63;80.78;100282.53;5095383;27;45439;-79
2022/11/08 10:52:01;;;;;;;;;3.67;3.67;;;;;18.68;81.15;100288.81;5099123;27;45368;-79
2022/11/08 10:54:48;;;;;;;;;3.33;3.00;;;;;18.68;80.34;100290.72;5107340;27;45988;-79
2022/11/08 10:57:33;;;;;;;;;4.33;4.00;;;;;18.66;80.41;100284.75;5085475;27;46189;-80
2022/11/08 11:00:17;;;;;;;;;7.00;5.00;;;;;18.70;79.90;100290.47;5095504;27;45558;-80
2022/11/08 11:02:50;;;;;;;;;10.67;10.67;;;;;18.68;79.71;100296.91;5095670;27;45195;-78
2022/11/08 11:05:16;;;;;;;;;11.33;8.00;;;;;18.71;80.58;100284.84;5099516;27;45479;-78
2022/11/08 11:07:57;;;;;;;;;4.00;4.00;;;;;18.69;80.60;100284.28;5099158;27;46272;-78
2022/11/08 11:10:25;;;;;;;;;3.00;3.00;;;;;18.75;80.88;100272.53;5100037;27;45369;-77
2022/11/08 11:13:00;;;;;;;;;4.00;4.00;;;;;18.71;80.99;100259.81;5093325;27;45405;-79
2022/11/08 11:15:49;;;;;;;;;4.00;4.00;;;;;18.76;80.88;100276.88;5106903;27;45495;-80
2022/11/08 11:18:37;;;;;;;;;5.33;4.00;;;;;18.82;80.58;100268.91;5110621;27;45989;-79
2022/11/08 11:21:10;;;;;;;;;3.67;3.33;;;;;18.83;80.10;100262.44;5113006;27;45423;-80
2022/11/08 11:23:43;;;;;;;;;3.00;2.00;;;;;18.90;80.42;100260.41;5114948;27;45257;-83
2022/11/08 11:26:16;;;;;;;;;3.33;3.33;;;;;18.98;80.82;100253.81;5105234;27;45256;-80
2022/11/08 11:29:04;;;;;;;;;2.33;2.00;;;;;19.12;81.32;100254.34;5111373;27;45372;-81
2022/11/08 11:31:37;;;;;;;;;3.00;3.00;;;;;19.26;80.75;100261.06;5108046;27;45265;-80
2022/11/08 11:34:17;;;;;;;;;4.33;3.33;;;;;19.35;81.18;100263.34;5094949;27;45500;-80
2022/11/08 11:36:53;;;;;;;;;4.33;3.33;;;;;19.11;81.03;100269.72;5107541;27;45399;-79
2022/11/08 11:39:52;;;;;;;;;4.67;3.67;;;;;19.43;80.21;100271.81;5103059;27;45420;-83
2022/11/08 11:42:45;;;;;;;;;4.00;4.00;;;;;19.55;79.83;100252.88;5096767;27;44679;-82
2022/11/08 11:45:16;;;;;;;;;3.00;3.00;;;;;19.62;80.71;100265.38;5112263;27;45379;-82
2022/11/08 11:47:51;;;;;;;;;4.67;4.00;;;;;19.70;80.64;100264.97;5103097;27;45291;-80